Alabama, New York
Current Conditions -  °F | °C
As of 6:54 PM on Saturday 22 Nov 2014 (Local Time) from KBUF Reporting Station
Overcast Overcast  
Wind Chill: 33°   Ceiling: 1800
Heat Index: 40°   Visibility: 9mi
Dew Point: 37°   Wind: 12mph
Humidity: 89%   Direction: 210°SSW
Pressure: 29.98"   Gusts: NA
Location:  43.1°N, 78.39°W
Report Text: KBUF 222354Z 21010KT 9SM OVC018 04/03 A2998 RMK AO2 RAB32E42 SLP161 P0000 60006 T00440028 10050 20022 56002
Loading
Personal Weather Stations






























Interactive Weather Map New forecast layout! Learn more

10-Day Weather Forecast

Advertisements
Track Severe Weather on mobile